Time;durP1;ratioP1;P1;durP2;ratioP2;P2;SDS_P1;SDS_P2;PMS_P1;PMS_P2;Temp;Humidity;BMP_temperature;BMP_pressure;BME280_temperature;BME280_humidity;BME280_pressure;Samples;Min_cycle;Max_cycle;Signal;HPM_P1;HPM_P2
2022/07/12 00:02:06;;;;;;;6.72;2.03;;;16.70;94.90;;;;;;5014279;28;20068;-79
2022/07/12 00:04:32;;;;;;;6.72;1.90;;;16.80;95.10;;;;;;5014389;28;20062;-79
2022/07/12 00:06:58;;;;;;;4.25;1.33;;;16.70;95.00;;;;;;5019599;28;20034;-77
2022/07/12 00:09:23;;;;;;;2.80;1.50;;;16.70;95.00;;;;;;5023337;28;20040;-78
2022/07/12 00:11:49;;;;;;;2.83;1.77;;;16.80;95.10;;;;;;5023195;28;20080;-79
2022/07/12 00:14:15;;;;;;;3.63;1.67;;;16.80;95.10;;;;;;5025422;28;20037;-77
2022/07/12 00:16:41;;;;;;;3.38;1.45;;;16.80;95.20;;;;;;5023575;28;20022;-78
2022/07/12 00:19:07;;;;;;;2.80;1.60;;;16.70;95.20;;;;;;5019926;28;20029;-78
2022/07/12 00:21:32;;;;;;;3.22;1.58;;;16.70;95.30;;;;;;5025278;28;20394;-78
2022/07/12 00:23:58;;;;;;;2.42;1.40;;;16.70;95.40;;;;;;5026984;28;20034;-76
2022/07/12 00:26:24;;;;;;;5.38;1.60;;;16.80;95.40;;;;;;5028236;28;20026;-77
2022/07/12 00:28:50;;;;;;;4.90;1.80;;;16.70;95.50;;;;;;5024114;28;20052;-78
2022/07/12 00:31:16;;;;;;;4.85;2.05;;;16.70;95.60;;;;;;5026472;28;20026;-78
2022/07/12 00:33:42;;;;;;;4.63;2.05;;;16.70;95.70;;;;;;5025003;28;20025;-78
2022/07/12 00:36:08;;;;;;;3.92;1.60;;;16.70;95.70;;;;;;5021054;28;20069;-78
2022/07/12 00:38:34;;;;;;;1.58;1.40;;;16.70;95.80;;;;;;5020772;28;20037;-79
2022/07/12 00:40:59;;;;;;;2.55;1.45;;;16.70;95.80;;;;;;5019473;28;20038;-79
2022/07/12 00:43:26;;;;;;;6.47;1.70;;;16.70;95.90;;;;;;5019582;28;20034;-77
2022/07/12 00:45:51;;;;;;;4.72;1.45;;;16.70;95.90;;;;;;5021772;28;20085;-77
2022/07/12 00:48:18;;;;;;;4.90;1.50;;;16.70;95.90;;;;;;5023619;28;20548;-77
2022/07/12 00:50:46;;;;;;;4.68;1.80;;;16.60;96.10;;;;;;5032627;28;20026;-80
2022/07/12 00:53:13;;;;;;;3.80;1.70;;;16.60;96.70;;;;;;5034153;28;20049;-79
2022/07/12 00:55:39;;;;;;;6.47;1.88;;;16.50;97.10;;;;;;5024537;28;20030;-78
2022/07/12 00:58:05;;;;;;;3.28;1.80;;;16.50;97.50;;;;;;5024646;28;20108;-78
2022/07/12 01:00:31;;;;;;;2.08;1.65;;;16.40;98.70;;;;;;5023253;28;20367;-79
2022/07/12 01:03:00;;;;;;;3.92;2.13;;;16.40;99.10;;;;;;5020239;28;20060;-79
2022/07/12 01:05:28;;;;;;;5.93;1.60;;;16.30;99.40;;;;;;5020256;28;20038;-79
2022/07/12 01:07:55;;;;;;;3.45;1.60;;;16.30;98.80;;;;;;5020890;28;20026;-79
2022/07/12 01:10:21;;;;;;;8.13;1.98;;;16.30;98.80;;;;;;5021210;28;20038;-79
2022/07/12 01:12:47;;;;;;;3.50;1.95;;;16.30;99.10;;;;;;5019789;28;20088;-79
2022/07/12 01:15:13;;;;;;;3.90;1.60;;;16.20;99.60;;;;;;5018888;28;20107;-77
2022/07/12 01:17:39;;;;;;;2.92;1.90;;;16.20;99.70;;;;;;5018212;28;20022;-78
2022/07/12 01:20:06;;;;;;;3.92;1.80;;;16.20;99.90;;;;;;5019863;28;20061;-78
2022/07/12 01:22:34;;;;;;;3.95;1.85;;;16.10;99.90;;;;;;5019755;28;20022;-78
2022/07/12 01:25:02;;;;;;;4.10;2.00;;;16.10;99.90;;;;;;5018119;28;20034;-77
2022/07/12 01:27:29;;;;;;;4.40;1.80;;;16.10;99.90;;;;;;5005384;28;20033;-78
2022/07/12 01:29:55;;;;;;;3.22;1.90;;;16.00;99.90;;;;;;5017235;28;20046;-78
2022/07/12 01:32:24;;;;;;;3.80;2.00;;;16.00;99.90;;;;;;5014547;28;20050;-78
2022/07/12 01:34:51;;;;;;;3.00;1.85;;;16.00;99.90;;;;;;5015717;28;20394;-79
2022/07/12 01:37:18;;;;;;;2.40;1.70;;;16.00;99.90;;;;;;5014411;28;20585;-79
2022/07/12 01:39:45;;;;;;;2.17;1.90;;;15.90;99.90;;;;;;5015655;28;20041;-79
2022/07/12 01:42:11;;;;;;;2.65;1.50;;;16.00;99.90;;;;;;5015665;28;20029;-79
2022/07/12 01:44:37;;;;;;;2.65;1.75;;;16.00;99.90;;;;;;5015460;28;20165;-79
2022/07/12 01:47:03;;;;;;;4.63;1.70;;;16.00;99.90;;;;;;5015091;28;20018;-78
2022/07/12 01:49:29;;;;;;;2.72;1.75;;;16.00;99.90;;;;;;5015298;28;20105;-78
2022/07/12 01:51:55;;;;;;;2.60;2.05;;;16.00;99.90;;;;;;5016815;28;20058;-79
2022/07/12 01:54:22;;;;;;;2.38;1.70;;;15.90;99.90;;;;;;5015679;28;20044;-78
2022/07/12 01:56:48;;;;;;;3.63;1.60;;;15.80;99.90;;;;;;5015248;28;20029;-79
2022/07/12 01:59:14;;;;;;;4.65;2.03;;;15.80;99.90;;;;;;5017169;28;20112;-78
2022/07/12 02:01:40;;;;;;;4.63;1.70;;;15.80;99.90;;;;;;5017225;28;20064;-79
2022/07/12 02:04:07;;;;;;;5.88;2.00;;;15.80;99.90;;;;;;5016988;28;20034;-79
2022/07/12 02:06:33;;;;;;;4.13;2.05;;;15.80;99.90;;;;;;5022047;28;20048;-79
2022/07/12 02:09:00;;;;;;;2.45;1.65;;;15.80;99.90;;;;;;5012711;28;20105;-78
2022/07/12 02:11:26;;;;;;;3.20;1.90;;;15.80;99.90;;;;;;5097790;22;20033;-84
2022/07/12 02:13:52;;;;;;;4.13;2.20;;;15.80;99.90;;;;;;5078167;28;20055;-83
2022/07/12 02:16:18;;;;;;;4.10;2.10;;;15.80;99.90;;;;;;5078752;28;20029;-84
2022/07/12 02:18:44;;;;;;;4.07;1.90;;;15.80;99.90;;;;;;5078224;28;20013;-85
2022/07/12 02:21:09;;;;;;;5.68;1.75;;;15.70;99.90;;;;;;5079018;28;20348;-84
2022/07/12 02:23:35;;;;;;;2.10;1.80;;;15.70;99.90;;;;;;5078983;28;20259;-83
2022/07/12 02:26:01;;;;;;;5.53;1.90;;;15.70;99.90;;;;;;5068445;28;20047;-84
2022/07/12 02:28:27;;;;;;;3.10;2.20;;;15.70;99.90;;;;;;5073595;28;20071;-84
2022/07/12 02:30:53;;;;;;;3.05;2.22;;;15.70;99.90;;;;;;5078140;28;20067;-83
2022/07/12 02:33:19;;;;;;;3.83;2.05;;;15.70;99.90;;;;;;5078460;28;20013;-84
2022/07/12 02:35:45;;;;;;;3.88;2.10;;;15.70;99.90;;;;;;5078190;28;20025;-85
2022/07/12 02:38:12;;;;;;;4.32;2.30;;;15.70;99.90;;;;;;5078575;28;20025;-84
2022/07/12 02:40:53;;;;;;;6.15;1.90;;;15.70;99.90;;;;;;5077898;28;20021;-84
2022/07/12 02:43:25;;;;;;;5.50;2.20;;;15.60;99.90;;;;;;5076451;28;20028;-83
2022/07/12 02:46:02;;;;;;;4.93;2.33;;;15.60;99.90;;;;;;5078270;28;20036;-84
2022/07/12 02:48:28;;;;;;;5.28;2.17;;;15.60;99.90;;;;;;5077830;28;20044;-85
2022/07/12 02:50:54;;;;;;;3.78;2.10;;;15.60;99.90;;;;;;5077924;28;20025;-86
2022/07/12 02:53:20;;;;;;;2.72;2.20;;;15.50;99.90;;;;;;5077366;28;20031;-85
2022/07/12 02:55:46;;;;;;;3.97;2.45;;;15.40;99.90;;;;;;5077932;28;20029;-84
2022/07/12 02:58:12;;;;;;;2.72;2.05;;;15.40;99.90;;;;;;5076639;28;20035;-84
2022/07/12 03:00:38;;;;;;;4.57;2.38;;;15.40;99.90;;;;;;5060452;28;20012;-84
2022/07/12 03:03:07;;;;;;;2.95;2.15;;;15.30;99.90;;;;;;5077189;28;20071;-83
2022/07/12 03:05:34;;;;;;;6.63;2.70;;;15.30;99.90;;;;;;5077387;28;20028;-85
2022/07/12 03:08:01;;;;;;;3.17;2.38;;;15.30;99.90;;;;;;5049096;28;20075;-85
2022/07/12 03:10:26;;;;;;;5.15;1.70;;;15.30;99.90;;;;;;5056880;28;20677;-83
2022/07/12 03:12:52;;;;;;;2.45;1.95;;;15.30;99.90;;;;;;5057359;28;20014;-84
2022/07/12 03:15:18;;;;;;;3.85;2.22;;;15.30;99.90;;;;;;5056782;28;20081;-84
2022/07/12 03:17:44;;;;;;;6.97;1.85;;;15.30;99.90;;;;;;5065346;28;20040;-83
2022/07/12 03:20:11;;;;;;;3.70;1.70;;;15.30;99.90;;;;;;5075430;28;20052;-84
2022/07/12 03:22:38;;;;;;;3.58;1.98;;;15.40;99.90;;;;;;5069691;28;20021;-84
2022/07/12 03:25:04;;;;;;;4.38;1.80;;;15.40;99.90;;;;;;5055980;28;20041;-85
2022/07/12 03:27:33;;;;;;;2.67;1.58;;;15.40;99.90;;;;;;5061497;28;20037;-82
2022/07/12 03:29:59;;;;;;;3.45;2.17;;;15.50;99.90;;;;;;5075602;28;20033;-86
2022/07/12 03:32:26;;;;;;;4.55;1.90;;;15.60;99.90;;;;;;5075704;28;20085;-86
2022/07/12 03:34:52;;;;;;;2.33;1.80;;;15.70;99.90;;;;;;5074940;28;20033;-89
2022/07/12 03:37:18;;;;;;;2.33;1.67;;;15.70;99.90;;;;;;5053999;28;20100;-88
2022/07/12 03:39:44;;;;;;;1.67;1.55;;;15.80;99.90;;;;;;5055213;28;20033;-88
2022/07/12 03:42:13;;;;;;;3.13;1.73;;;15.90;99.90;;;;;;5055915;28;20045;-86
2022/07/12 03:44:39;;;;;;;2.50;1.88;;;15.90;99.90;;;;;;5055955;28;20036;-87
2022/07/12 03:47:05;;;;;;;8.63;1.77;;;16.00;99.90;;;;;;5060429;28;20049;-88
2022/07/12 03:49:31;;;;;;;2.30;1.60;;;16.10;99.90;;;;;;5079529;28;20081;-88
2022/07/12 03:51:57;;;;;;;6.32;2.20;;;16.10;99.90;;;;;;5080536;28;20033;-86
2022/07/12 03:54:23;;;;;;;5.15;2.20;;;16.20;99.90;;;;;;5079488;28;20017;-87
2022/07/12 03:59:34;;;;;;;2.70;1.45;;;16.30;99.90;;;;;;5059794;28;20025;-87
2022/07/12 04:02:02;;;;;;;7.82;2.40;;;16.30;99.90;;;;;;5059448;28;20021;-86
2022/07/12 04:04:28;;;;;;;6.50;1.90;;;16.40;99.90;;;;;;5059617;28;20033;-88
2022/07/12 04:06:54;;;;;;;7.65;2.00;;;16.50;99.90;;;;;;5063227;28;20052;-89
2022/07/12 04:09:20;;;;;;;4.18;2.00;;;16.60;99.90;;;;;;5080205;28;20040;-88
2022/07/12 04:11:46;;;;;;;4.70;1.90;;;16.70;99.90;;;;;;5071736;28;20077;-85
2022/07/12 04:14:12;;;;;;;5.20;1.90;;;16.80;99.90;;;;;;5058796;28;20048;-87
2022/07/12 04:16:38;;;;;;;4.82;2.20;;;16.90;99.90;;;;;;5058477;28;20041;-86
2022/07/12 04:19:08;;;;;;;6.97;1.73;;;17.00;99.90;;;;;;5076766;28;20044;-87
2022/07/12 04:21:35;;;;;;;6.18;1.90;;;17.00;99.90;;;;;;5078020;28;20032;-87
2022/07/12 04:24:05;;;;;;;15.05;7.95;;;17.10;99.90;;;;;;5078535;28;20033;-87
2022/07/12 04:26:31;;;;;;;8.52;3.28;;;17.10;99.90;;;;;;5076586;28;20033;-86
2022/07/12 04:28:57;;;;;;;4.80;1.80;;;17.10;99.90;;;;;;5057748;28;20043;-88
2022/07/12 04:31:24;;;;;;;4.07;1.77;;;17.10;99.90;;;;;;5056873;28;20038;-87
2022/07/12 04:33:50;;;;;;;2.30;1.60;;;17.00;99.90;;;;;;5058220;28;20041;-88
2022/07/12 04:36:16;;;;;;;4.25;1.45;;;17.00;99.90;;;;;;5058353;28;20029;-87
2022/07/12 04:38:42;;;;;;;4.30;1.48;;;17.00;99.90;;;;;;5077688;28;20043;-90
2022/07/12 04:41:08;;;;;;;6.57;1.90;;;17.10;99.90;;;;;;5079643;28;20090;-88
2022/07/12 04:43:34;;;;;;;6.43;2.00;;;17.10;99.90;;;;;;5080563;28;20013;-87
2022/07/12 04:46:08;;;;;;;5.80;1.90;;;17.20;99.90;;;;;;5080567;28;20033;-89
2022/07/12 04:48:35;;;;;;;8.93;2.30;;;17.20;99.90;;;;;;5063759;28;20013;-86
2022/07/12 04:51:01;;;;;;;8.57;1.90;;;17.30;99.90;;;;;;5063739;28;20036;-86
2022/07/12 04:53:27;;;;;;;15.45;2.10;;;17.60;99.90;;;;;;5063615;28;20078;-89
2022/07/12 04:55:57;;;;;;;7.35;2.15;;;17.90;99.90;;;;;;5079740;28;20017;-90
2022/07/12 04:58:23;;;;;;;9.63;2.10;;;18.00;99.90;;;;;;5061610;28;20024;-88
2022/07/12 05:00:50;;;;;;;1.95;1.33;;;18.00;99.90;;;;;;5062634;28;20050;-88
2022/07/12 05:03:19;;;;;;;4.93;1.45;;;18.00;99.90;;;;;;5080115;28;20116;-89
2022/07/12 05:05:46;;;;;;;4.97;1.80;;;18.10;99.90;;;;;;5062692;28;20029;-88
2022/07/12 05:08:11;;;;;;;3.67;1.80;;;18.20;99.90;;;;;;5045580;28;20028;-89
2022/07/12 05:10:37;;;;;;;5.43;1.77;;;18.20;99.90;;;;;;5058259;28;20029;-88
2022/07/12 05:13:04;;;;;;;3.22;1.45;;;18.50;99.90;;;;;;5058382;28;20072;-89
2022/07/12 05:15:30;;;;;;;2.15;1.35;;;18.80;99.90;;;;;;5057614;28;20045;-87
2022/07/12 05:17:56;;;;;;;5.47;1.70;;;19.00;99.90;;;;;;5057040;28;20056;-89
2022/07/12 05:20:22;;;;;;;7.65;1.40;;;18.90;99.90;;;;;;5066244;28;20092;-87
2022/07/12 05:22:48;;;;;;;2.22;1.42;;;18.90;99.90;;;;;;5056652;28;20029;-87
2022/07/12 05:25:15;;;;;;;3.78;1.40;;;18.90;99.90;;;;;;5057135;28;20026;-88
2022/07/12 05:27:42;;;;;;;2.95;1.60;;;19.00;99.90;;;;;;5054553;28;20073;-89
2022/07/12 05:30:08;;;;;;;6.50;1.58;;;19.00;99.90;;;;;;5047675;28;20018;-88
2022/07/12 05:32:34;;;;;;;2.80;1.40;;;19.00;99.90;;;;;;5057043;28;20021;-89
2022/07/12 05:35:00;;;;;;;5.35;1.55;;;19.00;99.90;;;;;;5057791;28;20043;-89
2022/07/12 05:37:26;;;;;;;7.88;1.42;;;19.10;99.90;;;;;;5057454;28;20057;-88
2022/07/12 05:39:55;;;;;;;5.22;2.80;;;19.10;99.90;;;;;;5057760;28;20013;-87
2022/07/12 05:42:21;;;;;;;5.07;1.83;;;19.50;99.90;;;;;;5034324;28;20091;-89
2022/07/12 05:44:46;;;;;;;16.05;5.18;;;19.90;99.90;;;;;;5041079;28;20101;-88
2022/07/12 05:47:12;;;;;;;4.07;2.00;;;20.10;99.90;;;;;;5054324;28;20028;-87
2022/07/12 05:49:38;;;;;;;5.28;1.83;;;20.20;99.50;;;;;;5043903;28;20018;-90
2022/07/12 05:54:49;;;;;;;4.15;1.90;;;20.30;99.30;;;;;;5113439;22;20274;-90
2022/07/12 05:57:16;;;;;;;7.25;1.92;;;20.40;99.30;;;;;;5078718;28;20021;-85
2022/07/12 05:59:43;;;;;;;4.88;1.50;;;20.40;99.20;;;;;;5078753;28;20029;-84
2022/07/12 06:02:09;;;;;;;2.28;1.30;;;20.50;97.20;;;;;;5077919;28;20024;-85
2022/07/12 06:04:35;;;;;;;4.00;1.30;;;20.50;96.20;;;;;;5078129;28;20040;-82
2022/07/12 06:07:03;;;;;;;1.63;1.00;;;20.50;96.00;;;;;;5076042;28;20009;-84
2022/07/12 06:09:29;;;;;;;3.80;1.13;;;20.60;95.50;;;;;;5077070;28;20035;-85
2022/07/12 06:11:55;;;;;;;5.07;1.67;;;20.60;95.00;;;;;;5078223;28;20033;-84
2022/07/12 06:14:20;;;;;;;4.72;1.10;;;20.60;95.40;;;;;;5077831;28;20024;-83
2022/07/12 06:16:46;;;;;;;3.55;1.10;;;20.70;94.90;;;;;;5077008;28;20108;-85
2022/07/12 06:19:12;;;;;;;3.00;1.17;;;20.70;95.50;;;;;;5078135;28;20078;-83
2022/07/12 06:21:38;;;;;;;2.45;1.30;;;20.80;94.90;;;;;;5078069;28;20033;-84
2022/07/12 06:24:04;;;;;;;3.05;1.23;;;20.80;94.80;;;;;;5063037;28;20043;-85
2022/07/12 06:26:30;;;;;;;5.32;1.10;;;20.80;93.50;;;;;;5077374;28;20056;-84
2022/07/12 06:28:56;;;;;;;2.85;1.15;;;20.90;93.90;;;;;;5077950;28;20016;-87
2022/07/12 06:31:23;;;;;;;3.45;1.38;;;21.00;93.20;;;;;;5076653;28;20021;-85
2022/07/12 06:33:49;;;;;;;5.47;1.00;;;21.10;92.50;;;;;;5077121;28;20033;-87
2022/07/12 06:36:15;;;;;;;1.67;1.08;;;21.20;91.40;;;;;;5073869;28;20032;-84
2022/07/12 06:38:41;;;;;;;6.88;1.20;;;21.00;90.50;;;;;;5065528;28;20059;-85
2022/07/12 06:41:07;;;;;;;3.63;1.27;;;21.10;90.90;;;;;;5068323;28;20009;-88
2022/07/12 06:43:33;;;;;;;4.05;1.30;;;21.10;90.90;;;;;;5072251;28;20055;-87
2022/07/12 06:45:59;;;;;;;7.53;1.08;;;21.10;91.00;;;;;;5074003;28;20053;-86
2022/07/12 06:48:25;;;;;;;4.88;1.10;;;21.30;91.10;;;;;;5075041;28;20017;-88
2022/07/12 06:50:51;;;;;;;3.05;0.82;;;21.50;90.20;;;;;;5084609;28;20031;-88
2022/07/12 06:53:17;;;;;;;3.58;1.08;;;21.60;89.30;;;;;;5071535;28;20036;-86
2022/07/12 06:55:43;;;;;;;2.17;1.10;;;21.80;89.10;;;;;;5075553;28;20017;-86
2022/07/12 06:58:10;;;;;;;1.45;0.93;;;22.00;89.00;;;;;;5072125;28;20024;-85
2022/07/12 07:00:36;;;;;;;2.50;0.88;;;22.10;89.50;;;;;;5068631;28;20025;-86
2022/07/12 07:03:05;;;;;;;3.53;2.40;;;22.30;88.80;;;;;;5059578;28;20042;-85
2022/07/12 07:05:31;;;;;;;1.27;0.90;;;22.30;87.70;;;;;;5075476;28;20040;-85
2022/07/12 07:07:57;;;;;;;3.50;1.00;;;22.30;86.70;;;;;;5084441;28;20044;-86
2022/07/12 07:10:23;;;;;;;2.40;0.88;;;22.30;88.40;;;;;;5077524;28;20013;-83
2022/07/12 07:12:48;;;;;;;3.50;1.20;;;22.30;89.00;;;;;;5077275;28;20021;-84
2022/07/12 07:15:16;;;;;;;5.07;1.15;;;22.30;89.60;;;;;;5077165;28;20025;-85
2022/07/12 07:17:42;;;;;;;3.08;1.13;;;22.40;90.00;;;;;;5071038;28;20036;-85
2022/07/12 07:20:10;;;;;;;0.85;0.80;;;22.50;89.40;;;;;;5070402;28;20029;-90
2022/07/12 07:22:38;;;;;;;2.15;1.10;;;22.60;89.20;;;;;;5034908;28;20129;-88
2022/07/12 07:25:05;;;;;;;11.00;1.50;;;22.80;89.10;;;;;;5050111;28;20021;-87
2022/07/12 07:27:31;;;;;;;7.00;0.93;;;22.80;90.20;;;;;;5057279;28;20055;-88
2022/07/12 07:32:41;;;;;;;5.93;1.05;;;23.20;88.60;;;;;;5094206;28;20036;-92
2022/07/12 07:35:08;;;;;;;2.95;1.10;;;23.20;88.40;;;;;;5072787;28;20025;-89
2022/07/12 07:37:35;;;;;;;4.32;1.38;;;23.20;88.90;;;;;;5075337;28;20029;-90
2022/07/12 07:40:02;;;;;;;1.95;1.10;;;23.30;88.40;;;;;;5075464;28;20026;-88
2022/07/12 07:42:28;;;;;;;4.75;1.02;;;23.40;87.10;;;;;;5076949;28;20021;-89
2022/07/12 07:44:54;;;;;;;1.75;1.10;;;23.20;86.30;;;;;;5077254;28;20032;-91
2022/07/12 07:47:20;;;;;;;3.13;1.10;;;23.30;86.60;;;;;;5077101;28;20084;-91
2022/07/12 07:49:46;;;;;;;24.45;1.70;;;23.20;86.80;;;;;;5087261;28;20051;-89
2022/07/12 07:52:12;;;;;;;3.00;1.02;;;23.30;88.10;;;;;;5077858;28;20044;-89
2022/07/12 07:54:38;;;;;;;1.77;1.10;;;23.40;88.10;;;;;;5060804;28;20029;-90
2022/07/12 07:57:04;;;;;;;2.92;1.10;;;23.70;87.80;;;;;;5077520;28;20047;-90
2022/07/12 07:59:30;;;;;;;3.42;1.00;;;23.60;86.70;;;;;;5077071;28;20051;-89
2022/07/12 08:01:56;;;;;;;2.40;1.10;;;23.60;86.50;;;;;;5077781;28;20009;-90
2022/07/12 08:04:22;;;;;;;5.40;1.45;;;23.50;87.80;;;;;;5077804;28;20037;-88
2022/07/12 08:06:49;;;;;;;4.85;1.40;;;23.50;88.10;;;;;;5093964;28;20049;-87
2022/07/12 08:09:15;;;;;;;5.75;0.85;;;23.60;87.20;;;;;;5093550;28;20005;-84
2022/07/12 08:11:41;;;;;;;3.42;1.25;;;23.50;88.20;;;;;;5076766;28;20021;-89
2022/07/12 08:14:08;;;;;;;3.78;1.20;;;23.50;88.40;;;;;;5077595;28;20009;-90
2022/07/12 08:16:35;;;;;;;4.45;1.38;;;23.60;88.30;;;;;;5093445;28;20021;-88
2022/07/12 08:19:01;;;;;;;3.85;1.15;;;23.80;88.10;;;;;;5076672;28;20013;-88
2022/07/12 08:21:27;;;;;;;8.43;1.85;;;24.10;87.30;;;;;;5076916;28;20029;-88
2022/07/12 08:23:54;;;;;;;5.85;1.50;;;24.20;85.60;;;;;;5074922;28;20047;-84
2022/07/12 08:26:20;;;;;;;2.70;1.25;;;24.10;85.90;;;;;;5069205;28;20067;-88
2022/07/12 08:28:46;;;;;;;1.70;1.17;;;24.20;86.30;;;;;;5064211;23;20054;-80
2022/07/12 08:31:15;;;;;;;4.95;1.42;;;24.00;87.00;;;;;;5050364;28;20051;-77
2022/07/12 08:33:41;;;;;;;3.63;1.02;;;23.90;85.10;;;;;;5054458;28;20020;-78
2022/07/12 08:36:08;;;;;;;2.78;1.08;;;24.00;85.50;;;;;;5054777;28;20021;-79
2022/07/12 08:38:38;;;;;;;2.92;1.33;;;24.10;84.20;;;;;;5048739;28;20023;-80
2022/07/12 08:41:07;;;;;;;2.30;1.10;;;24.00;83.80;;;;;;5048846;28;20040;-80
2022/07/12 08:43:36;;;;;;;6.22;1.20;;;24.00;83.60;;;;;;5050858;28;20037;-82
2022/07/12 08:46:06;;;;;;;2.17;1.20;;;24.10;84.40;;;;;;5044927;28;20485;-80
2022/07/12 08:48:33;;;;;;;6.00;1.25;;;24.10;84.20;;;;;;5048268;28;20022;-80
2022/07/12 08:51:01;;;;;;;3.38;1.48;;;24.30;82.80;;;;;;5045743;28;20033;-80
2022/07/12 08:53:27;;;;;;;4.60;1.23;;;24.10;81.60;;;;;;5045935;28;20120;-81
2022/07/12 08:55:53;;;;;;;2.22;1.02;;;24.00;82.10;;;;;;5044818;28;20032;-80
2022/07/12 08:58:19;;;;;;;1.67;1.10;;;24.00;83.10;;;;;;5047089;28;20029;-79
2022/07/12 09:00:45;;;;;;;4.10;1.10;;;24.10;82.40;;;;;;5044383;28;20041;-80
2022/07/12 09:03:13;;;;;;;4.70;1.13;;;24.20;82.20;;;;;;5047725;28;20025;-80
2022/07/12 09:05:51;;;;;;;2.95;1.25;;;24.20;81.60;;;;;;5052789;28;20063;-79
2022/07/12 09:08:18;;;;;;;3.10;1.30;;;24.40;80.00;;;;;;5049937;28;20147;-81
2022/07/12 09:10:50;;;;;;;4.80;1.08;;;24.60;80.50;;;;;;5052028;28;20040;-79
2022/07/12 09:13:17;;;;;;;3.40;1.33;;;24.70;79.20;;;;;;5052487;28;20112;-79
2022/07/12 09:15:43;;;;;;;3.20;1.20;;;24.70;80.90;;;;;;5052517;28;20397;-79
2022/07/12 09:18:14;;;;;;;5.00;1.50;;;24.60;80.10;;;;;;5054106;28;20025;-81
2022/07/12 09:20:43;;;;;;;2.78;1.00;;;24.70;79.50;;;;;;5052132;28;20361;-82
2022/07/12 09:23:12;;;;;;;1.83;1.25;;;25.10;77.10;;;;;;5047144;28;20020;-80
2022/07/12 09:25:48;;;;;;;3.17;1.35;;;25.20;78.00;;;;;;5053932;28;20105;-82
2022/07/12 09:28:15;;;;;;;6.55;1.20;;;25.40;77.20;;;;;;5046942;28;20068;-82
2022/07/12 09:30:49;;;;;;;4.53;1.30;;;25.60;75.70;;;;;;5052575;28;20066;-80
2022/07/12 09:36:15;;;;;;;1.77;0.70;;;25.80;72.10;;;;;;5055505;28;20033;-81
2022/07/12 09:39:01;;;;;;;5.18;1.13;;;26.00;69.90;;;;;;5052163;28;20092;-79
2022/07/12 09:41:27;;;;;;;3.38;0.90;;;26.20;72.40;;;;;;5057850;28;20044;-81
2022/07/12 09:43:53;;;;;;;2.70;1.15;;;26.20;74.30;;;;;;5048287;28;20044;-79
2022/07/12 09:46:19;;;;;;;2.65;1.05;;;26.50;73.30;;;;;;5047775;28;20477;-79
2022/07/12 09:48:46;;;;;;;4.15;0.90;;;26.90;72.90;;;;;;5053632;28;20022;-78
2022/07/12 09:51:17;;;;;;;3.03;1.00;;;27.00;71.60;;;;;;5047275;28;20100;-79
2022/07/12 09:53:51;;;;;;;2.80;0.77;;;27.10;70.40;;;;;;5049900;28;20026;-80
2022/07/12 09:56:22;;;;;;;3.28;1.15;;;27.20;70.50;;;;;;5050773;28;20048;-78
2022/07/12 09:58:51;;;;;;;1.52;0.98;;;26.90;68.90;;;;;;5047744;28;20036;-78
2022/07/12 10:01:17;;;;;;;5.78;1.10;;;26.90;67.50;;;;;;5052741;28;20044;-79
2022/07/12 10:03:44;;;;;;;4.80;1.08;;;26.80;68.00;;;;;;5051549;28;20029;-77
2022/07/12 10:06:12;;;;;;;1.92;0.98;;;26.60;67.70;;;;;;5057737;28;20103;-80
2022/07/12 10:08:38;;;;;;;1.73;0.90;;;26.90;67.00;;;;;;5059083;28;20092;-78
2022/07/12 10:11:05;;;;;;;1.90;0.95;;;26.80;66.80;;;;;;5056226;28;20036;-79
2022/07/12 10:13:32;;;;;;;1.38;0.80;;;26.80;66.80;;;;;;5051064;28;20025;-78
2022/07/12 10:16:02;;;;;;;6.00;1.25;;;26.60;66.50;;;;;;5050804;28;20099;-78
2022/07/12 10:18:29;;;;;;;3.40;1.00;;;26.20;66.40;;;;;;5046326;28;20060;-79
2022/07/12 10:20:55;;;;;;;1.80;1.02;;;25.90;66.10;;;;;;5046106;28;20029;-79
2022/07/12 10:23:34;;;;;;;3.78;2.40;;;25.70;66.40;;;;;;5051891;28;20044;-77
2022/07/12 10:26:15;;;;;;;1.17;1.08;;;25.70;66.50;;;;;;5051162;28;20029;-79
2022/07/12 10:28:59;;;;;;;3.13;1.20;;;25.50;67.10;;;;;;5048393;28;20024;-81
2022/07/12 10:31:33;;;;;;;3.80;1.20;;;25.50;67.30;;;;;;5049947;28;20418;-79
2022/07/12 10:34:10;;;;;;;1.23;0.80;;;25.90;67.90;;;;;;5048925;28;20078;-78
2022/07/12 10:37:05;;;;;;;3.97;0.90;;;26.50;66.80;;;;;;5044945;28;20751;-79
2022/07/12 10:39:31;;;;;;;2.08;0.93;;;27.20;66.20;;;;;;5048778;28;20119;-80
2022/07/12 10:42:06;;;;;;;1.00;0.80;;;26.90;67.40;;;;;;5050983;28;20045;-80
2022/07/12 10:44:40;;;;;;;2.20;0.98;;;26.60;66.50;;;;;;5051434;28;20064;-81
2022/07/12 10:47:08;;;;;;;4.53;1.00;;;26.50;67.10;;;;;;5047123;28;20055;-78
2022/07/12 10:49:35;;;;;;;2.22;1.00;;;26.20;65.10;;;;;;5041899;28;20104;-80
2022/07/12 10:52:10;;;;;;;3.00;0.80;;;25.90;65.40;;;;;;5043156;28;20028;-80
2022/07/12 10:54:42;;;;;;;5.65;1.00;;;25.50;64.80;;;;;;5047363;28;20112;-79
2022/07/12 10:57:08;;;;;;;3.75;0.80;;;25.20;65.10;;;;;;5048206;28;20113;-81
2022/07/12 10:59:36;;;;;;;1.77;1.08;;;25.00;67.00;;;;;;5064212;28;20038;-81
2022/07/12 11:02:02;;;;;;;3.63;1.25;;;24.90;66.00;;;;;;5048727;28;20033;-80
2022/07/12 11:04:28;;;;;;;3.55;1.02;;;24.70;68.10;;;;;;5032856;28;20057;-78
2022/07/12 11:06:56;;;;;;;2.10;0.98;;;24.40;69.10;;;;;;5055602;28;20025;-78
2022/07/12 11:09:24;;;;;;;3.97;1.25;;;24.40;69.70;;;;;;5036910;28;20036;-81
2022/07/12 11:11:52;;;;;;;5.03;1.95;;;24.40;70.30;;;;;;5038088;28;20463;-82
2022/07/12 11:14:32;;;;;;;4.25;1.55;;;24.30;71.30;;;;;;5054016;28;20033;-81
2022/07/12 11:16:59;;;;;;;6.57;1.42;;;24.20;71.50;;;;;;5038553;28;20044;-81
2022/07/12 11:19:28;;;;;;;4.03;1.45;;;24.20;71.80;;;;;;5037150;28;20029;-80
2022/07/12 11:21:58;;;;;;;4.38;1.38;;;24.10;72.00;;;;;;5029888;28;20026;-81
2022/07/12 11:24:27;;;;;;;3.33;0.93;;;24.00;72.30;;;;;;5038414;28;20025;-80
2022/07/12 11:26:53;;;;;;;4.95;1.30;;;24.00;70.70;;;;;;5045772;28;20093;-80
2022/07/12 11:29:19;;;;;;;3.65;1.10;;;24.00;70.60;;;;;;5041753;28;20059;-82
2022/07/12 11:31:46;;;;;;;6.82;1.10;;;23.70;69.50;;;;;;5039146;28;20021;-81
2022/07/12 11:34:22;;;;;;;5.28;1.10;;;23.40;70.50;;;;;;5036038;28;20135;-81
2022/07/12 11:36:55;;;;;;;4.50;1.38;;;23.30;71.70;;;;;;5031711;28;20076;-81
2022/07/12 11:39:35;;;;;;;3.33;1.38;;;23.20;72.20;;;;;;5037854;28;20072;-80
2022/07/12 11:42:01;;;;;;;4.95;1.13;;;23.30;72.90;;;;;;5035675;28;20025;-80
2022/07/12 11:44:42;;;;;;;3.63;1.00;;;23.30;73.60;;;;;;5038084;28;20449;-81
2022/07/12 11:47:08;;;;;;;1.75;1.10;;;23.40;73.60;;;;;;5036633;28;20101;-79
2022/07/12 11:49:33;;;;;;;4.05;1.23;;;23.40;72.80;;;;;;5035378;28;20437;-80
2022/07/12 11:51:59;;;;;;;3.78;1.35;;;23.40;73.30;;;;;;5036960;28;20029;-80
2022/07/12 11:54:25;;;;;;;8.68;2.58;;;23.50;73.80;;;;;;5036573;28;20126;-81
2022/07/12 11:57:05;;;;;;;4.85;1.92;;;23.60;73.50;;;;;;5034092;28;20037;-82
2022/07/12 11:59:31;;;;;;;9.73;2.17;;;23.90;73.20;;;;;;5035766;28;20217;-80
2022/07/12 12:02:11;;;;;;;4.78;1.45;;;24.20;73.00;;;;;;5035712;28;20029;-79
2022/07/12 12:04:54;;;;;;;3.35;1.30;;;24.50;72.10;;;;;;5037904;28;20052;-81
2022/07/12 12:07:22;;;;;;;5.63;1.33;;;25.20;71.00;;;;;;5043879;28;20025;-80
2022/07/12 12:10:16;;;;;;;1.85;0.60;;;26.20;69.30;;;;;;5043958;28;20025;-81
2022/07/12 12:12:55;;;;;;;4.38;1.15;;;27.20;65.90;;;;;;5037399;28;20056;-80
2022/07/12 12:15:28;;;;;;;2.83;0.95;;;27.50;65.80;;;;;;5038258;28;20110;-80
2022/07/12 12:17:54;;;;;;;6.25;0.98;;;27.20;64.70;;;;;;5038467;28;20025;-80
2022/07/12 12:20:23;;;;;;;3.20;1.30;;;26.60;65.10;;;;;;5048107;28;20029;-79
2022/07/12 12:22:51;;;;;;;5.75;1.80;;;26.00;66.00;;;;;;5046170;28;20025;-80
2022/07/12 12:25:17;;;;;;;3.22;1.30;;;25.60;67.70;;;;;;5047601;28;20029;-81
2022/07/12 12:28:09;;;;;;;3.90;1.77;;;25.30;68.10;;;;;;5047848;28;20030;-80
2022/07/12 12:30:48;;;;;;;9.25;3.10;;;25.00;68.90;;;;;;5032230;28;20116;-80
2022/07/12 12:33:32;;;;;;;9.07;3.35;;;24.80;68.70;;;;;;5045963;28;20017;-81
2022/07/12 12:36:11;;;;;;;6.55;2.38;;;24.50;70.20;;;;;;5050033;28;20028;-80
2022/07/12 12:38:37;;;;;;;8.95;1.80;;;24.20;71.10;;;;;;5060024;28;20098;-80
2022/07/12 12:41:04;;;;;;;4.40;1.85;;;24.20;70.70;;;;;;5059596;28;20424;-79
2022/07/12 12:43:32;;;;;;;4.07;0.95;;;24.20;70.60;;;;;;5048397;28;20030;-80
2022/07/12 12:45:58;;;;;;;8.55;2.92;;;24.20;70.20;;;;;;5044632;28;20032;-80
2022/07/12 12:48:26;;;;;;;2.53;1.05;;;24.20;71.20;;;;;;5050212;28;20025;-79
2022/07/12 12:50:53;;;;;;;4.45;1.40;;;24.40;70.50;;;;;;5052883;28;20022;-81
2022/07/12 12:53:22;;;;;;;6.35;1.35;;;24.60;69.80;;;;;;5048161;28;20024;-80
2022/07/12 12:55:50;;;;;;;9.13;2.60;;;24.70;69.60;;;;;;5038903;28;20084;-80
2022/07/12 12:58:18;;;;;;;5.20;1.27;;;24.80;70.00;;;;;;5033621;28;20034;-81
2022/07/12 13:00:46;;;;;;;4.25;1.73;;;25.10;68.10;;;;;;5038406;28;20026;-81